PWSweather.com
Personal Weather Stations
Station Observations
KFLSTJOH36
Aberdeen Highland Point, Saint Johns, FL 32259

Aberdeen Highland PointSaint Johns, FL 32259

Lat: 30.082981, Lon: -81.59522

Elevation: 60

Station Type: Acurite 5-in-1 Weather Sensor

High Low Average
Temperature 100.8°F38.2°C 77.2°F25.1°C 88.4°F31.3°C
Dew Point 80.8°F27.1°C 72.7°F22.6°C 76.9°F24.9°C
Winds 10.0 mph 16.1 kmh Calm Calm 3.0 mph W4.8 kmh W
Wind Gusts -- -- --
Humidity 94% 49% 70%
Pressure 29.96 in1014.6 mb 29.83 in1010.2 mb -
Precipitation 1.15 in29.2 mm - -
Hour Temp Dew Point Humidity Winds Wind Gusts Pressure Precip Precip Rate Daily Precip Total
12:00 AM 77.4°F25.2°C 75.5°F24.2°C 94% Calm Calm -- 29.83 in1010.2 mb 0.05 in1.3 mm 0.00 in0.0 mm 0.03 in0.8 mm
12:05 AM 77.2°F25.1°C 75.3°F24.1°C 94% 3.0 mph WNW4.8 kmh WNW -- 29.83 in1010.2 mb 0.01 in0.3 mm 0.00 in0.0 mm 0.03 in0.8 mm
12:10 AM 77.2°F25.1°C 75.3°F24.1°C 94% 2.0 mph W3.2 kmh W -- 29.83 in1010.2 mb 0.01 in0.3 mm 0.00 in0.0 mm 0.03 in0.8 mm
12:15 AM 77.2°F25.1°C 75.3°F24.1°C 94% Calm Calm -- 29.84 in1010.5 mb 0.01 in0.3 mm 0.00 in0.0 mm 0.03 in0.8 mm
12:20 AM 77.4°F25.2°C 75.5°F24.2°C 94% 2.0 mph NW3.2 kmh NW -- 29.84 in1010.5 mb 0.01 in0.3 mm 0.00 in0.0 mm 0.03 in0.8 mm
12:25 AM 77.4°F25.2°C 75.5°F24.2°C 94% 1.0 mph W1.6 kmh W -- 29.84 in1010.5 mb 0.01 in0.3 mm 0.00 in0.0 mm 0.03 in0.8 mm
12:30 AM 77.4°F25.2°C 75.5°F24.2°C 94% 4.0 mph WNW6.4 kmh WNW -- 29.84 in1010.5 mb 0.01 in0.3 mm 0.00 in0.0 mm 0.03 in0.8 mm
12:35 AM 77.4°F25.2°C 75.2°F24.0°C 93% 3.0 mph W4.8 kmh W -- 29.84 in1010.5 mb 0.00 in0.0 mm 0.00 in0.0 mm 0.03 in0.8 mm
12:40 AM 77.9°F25.5°C 75.1°F23.9°C 91% 3.0 mph W4.8 kmh W -- 29.84 in1010.5 mb 0.00 in0.0 mm 0.00 in0.0 mm 0.03 in0.8 mm
12:45 AM 78.3°F25.7°C 75.1°F23.9°C 90% 2.0 mph W3.2 kmh W -- 29.84 in1010.5 mb 0.00 in0.0 mm 0.00 in0.0 mm 0.03 in0.8 mm
12:50 AM 78.4°F25.8°C 74.9°F23.8°C 89% 3.0 mph WNW4.8 kmh WNW -- 29.83 in1010.2 mb 0.00 in0.0 mm 0.00 in0.0 mm 0.03 in0.8 mm
12:55 AM 79.0°F26.1°C 74.8°F23.8°C 87% 3.0 mph WNW4.8 kmh WNW -- 29.84 in1010.5 mb 0.00 in0.0 mm 0.00 in0.0 mm 0.03 in0.8 mm
01:00 AM 79.5°F26.4°C 75.0°F23.9°C 86% 3.0 mph WNW4.8 kmh WNW -- 29.84 in1010.5 mb 0.00 in0.0 mm 0.00 in0.0 mm 0.03 in0.8 mm
01:05 AM 79.9°F26.6°C 74.6°F23.7°C 84% 4.0 mph W6.4 kmh W -- 29.84 in1010.5 mb 0.00 in0.0 mm 0.00 in0.0 mm 0.03 in0.8 mm
01:10 AM 80.2°F26.8°C 74.6°F23.7°C 83% 3.0 mph WNW4.8 kmh WNW -- 29.84 in1010.5 mb 0.00 in0.0 mm 0.00 in0.0 mm 0.03 in0.8 mm
01:15 AM 80.6°F27.0°C 74.6°F23.7°C 82% 3.0 mph WNW4.8 kmh WNW -- 29.84 in1010.5 mb 0.00 in0.0 mm 0.00 in0.0 mm 0.03 in0.8 mm
01:20 AM 80.8°F27.1°C 74.4°F23.6°C 81% 3.0 mph WNW4.8 kmh WNW -- 29.84 in1010.5 mb 0.00 in0.0 mm 0.00 in0.0 mm 0.03 in0.8 mm
01:25 AM 81.0°F27.2°C 74.6°F23.7°C 81% 3.0 mph W4.8 kmh W -- 29.84 in1010.5 mb 0.00 in0.0 mm 0.00 in0.0 mm 0.03 in0.8 mm
01:30 AM 81.1°F27.3°C 74.4°F23.6°C 80% 5.0 mph WNW8.0 kmh WNW -- 29.84 in1010.5 mb 0.00 in0.0 mm 0.00 in0.0 mm 0.03 in0.8 mm
01:35 AM 81.5°F27.5°C 74.4°F23.6°C 79% 3.0 mph W4.8 kmh W -- 29.83 in1010.2 mb 0.00 in0.0 mm 0.00 in0.0 mm 0.03 in0.8 mm
01:40 AM 81.7°F27.6°C 74.5°F23.6°C 79% 2.0 mph WNW3.2 kmh WNW -- 29.83 in1010.2 mb 0.00 in0.0 mm 0.00 in0.0 mm 0.03 in0.8 mm
01:45 AM 81.9°F27.7°C 74.3°F23.5°C 78% 4.0 mph W6.4 kmh W -- 29.84 in1010.5 mb 0.00 in0.0 mm 0.00 in0.0 mm 0.03 in0.8 mm
01:50 AM 82.0°F27.8°C 74.5°F23.6°C 78% 2.0 mph WNW3.2 kmh WNW -- 29.84 in1010.5 mb 0.00 in0.0 mm 0.00 in0.0 mm 0.03 in0.8 mm
01:55 AM 82.0°F27.8°C 74.5°F23.6°C 78% 3.0 mph WNW4.8 kmh WNW -- 29.85 in1010.8 mb 0.00 in0.0 mm 0.00 in0.0 mm 0.03 in0.8 mm
02:00 AM 82.0°F27.8°C 74.5°F23.6°C 78% 4.0 mph WNW6.4 kmh WNW -- 29.85 in1010.8 mb 0.00 in0.0 mm 0.00 in0.0 mm 0.03 in0.8 mm
02:05 AM 82.0°F27.8°C 74.5°F23.6°C 78% 2.0 mph WSW3.2 kmh WSW -- 29.85 in1010.8 mb 0.00 in0.0 mm 0.00 in0.0 mm 0.03 in0.8 mm
02:10 AM 82.0°F27.8°C 74.5°F23.6°C 78% 2.0 mph W3.2 kmh W -- 29.85 in1010.8 mb 0.00 in0.0 mm 0.00 in0.0 mm 0.03 in0.8 mm
02:15 AM 81.7°F27.6°C 74.1°F23.4°C 78% 3.0 mph W4.8 kmh W -- 29.85 in1010.8 mb 0.00 in0.0 mm 0.00 in0.0 mm 0.03 in0.8 mm
02:20 AM 81.7°F27.6°C 74.1°F23.4°C 78% 3.0 mph WNW4.8 kmh WNW -- 29.85 in1010.8 mb 0.00 in0.0 mm 0.00 in0.0 mm 0.03 in0.8 mm
02:35 AM 81.7°F27.6°C 74.1°F23.4°C 78% 2.0 mph WNW3.2 kmh WNW -- 29.85 in1010.8 mb 0.00 in0.0 mm 0.00 in0.0 mm 0.03 in0.8 mm
02:40 AM 81.5°F27.5°C 74.0°F23.3°C 78% 3.0 mph W4.8 kmh W -- 29.85 in1010.8 mb 0.00 in0.0 mm 0.00 in0.0 mm 0.03 in0.8 mm
02:45 AM 81.5°F27.5°C 74.0°F23.3°C 78% 2.0 mph W3.2 kmh W -- 29.85 in1010.8 mb 0.00 in0.0 mm 0.00 in0.0 mm 0.03 in0.8 mm
02:50 AM 81.3°F27.4°C 73.8°F23.2°C 78% 4.0 mph WSW6.4 kmh WSW -- 29.85 in1010.8 mb 0.00 in0.0 mm 0.00 in0.0 mm 0.03 in0.8 mm
02:55 AM 81.3°F27.4°C 74.2°F23.4°C 79% 2.0 mph W3.2 kmh W -- 29.85 in1010.8 mb 0.00 in0.0 mm 0.00 in0.0 mm 0.03 in0.8 mm
03:00 AM 81.1°F27.3°C 74.0°F23.3°C 79% 2.0 mph WNW3.2 kmh WNW -- 29.85 in1010.8 mb 0.00 in0.0 mm 0.00 in0.0 mm 0.03 in0.8 mm
03:05 AM 81.0°F27.2°C 73.8°F23.2°C 79% 2.0 mph W3.2 kmh W -- 29.85 in1010.8 mb 0.00 in0.0 mm 0.00 in0.0 mm 0.03 in0.8 mm
03:10 AM 81.0°F27.2°C 73.4°F23.0°C 78% 5.0 mph WNW8.0 kmh WNW -- 29.85 in1010.8 mb 0.00 in0.0 mm 0.00 in0.0 mm 0.03 in0.8 mm
03:15 AM 81.1°F27.3°C 73.6°F23.1°C 78% 4.0 mph W6.4 kmh W -- 29.85 in1010.8 mb 0.00 in0.0 mm 0.00 in0.0 mm 0.03 in0.8 mm
03:20 AM 81.0°F27.2°C 73.4°F23.0°C 78% 3.0 mph W4.8 kmh W -- 29.86 in1011.2 mb 0.00 in0.0 mm 0.00 in0.0 mm 0.03 in0.8 mm
03:25 AM 81.0°F27.2°C 73.4°F23.0°C 78% 2.0 mph W3.2 kmh W -- 29.86 in1011.2 mb 0.00 in0.0 mm 0.00 in0.0 mm 0.03 in0.8 mm
03:30 AM 81.0°F27.2°C 73.4°F23.0°C 78% 3.0 mph W4.8 kmh W -- 29.86 in1011.2 mb 0.00 in0.0 mm 0.00 in0.0 mm 0.03 in0.8 mm
03:55 AM 81.0°F27.2°C 73.4°F23.0°C 78% 3.0 mph WNW4.8 kmh WNW -- 29.87 in1011.5 mb 0.00 in0.0 mm 0.00 in0.0 mm 0.03 in0.8 mm
04:00 AM 80.4°F26.9°C 72.9°F22.7°C 78% 3.0 mph WNW4.8 kmh WNW -- 29.87 in1011.5 mb 0.00 in0.0 mm 0.00 in0.0 mm 0.03 in0.8 mm
04:05 AM 80.4°F26.9°C 72.9°F22.7°C 78% 4.0 mph W6.4 kmh W -- 29.87 in1011.5 mb 0.00 in0.0 mm 0.00 in0.0 mm 0.03 in0.8 mm
04:10 AM 80.4°F26.9°C 72.9°F22.7°C 78% 2.0 mph WSW3.2 kmh WSW -- 29.87 in1011.5 mb 0.00 in0.0 mm 0.00 in0.0 mm 0.03 in0.8 mm
04:15 AM 80.2°F26.8°C 72.7°F22.6°C 78% 2.0 mph W3.2 kmh W -- 29.87 in1011.5 mb 0.00 in0.0 mm 0.00 in0.0 mm 0.03 in0.8 mm
04:20 AM 80.4°F26.9°C 72.9°F22.7°C 78% 4.0 mph WNW6.4 kmh WNW -- 29.87 in1011.5 mb 0.00 in0.0 mm 0.00 in0.0 mm 0.03 in0.8 mm
04:25 AM 80.4°F26.9°C 72.9°F22.7°C 78% 4.0 mph WNW6.4 kmh WNW -- 29.88 in1011.9 mb 0.00 in0.0 mm 0.00 in0.0 mm 0.03 in0.8 mm
04:30 AM 80.4°F26.9°C 72.9°F22.7°C 78% 3.0 mph WNW4.8 kmh WNW -- 29.88 in1011.9 mb 0.00 in0.0 mm 0.00 in0.0 mm 0.03 in0.8 mm
04:35 AM 80.4°F26.9°C 72.9°F22.7°C 78% 2.0 mph WNW3.2 kmh WNW -- 29.88 in1011.9 mb 0.00 in0.0 mm 0.00 in0.0 mm 0.03 in0.8 mm
04:40 AM 80.4°F26.9°C 72.9°F22.7°C 78% 3.0 mph WNW4.8 kmh WNW -- 29.88 in1011.9 mb 0.00 in0.0 mm 0.00 in0.0 mm 0.03 in0.8 mm
04:45 AM 80.4°F26.9°C 72.9°F22.7°C 78% 2.0 mph WNW3.2 kmh WNW -- 29.88 in1011.9 mb 0.00 in0.0 mm 0.00 in0.0 mm 0.03 in0.8 mm
04:50 AM 80.4°F26.9°C 73.3°F22.9°C 79% 2.0 mph W3.2 kmh W -- 29.89 in1012.2 mb 0.00 in0.0 mm 0.00 in0.0 mm 0.03 in0.8 mm
04:55 AM 80.2°F26.8°C 73.1°F22.8°C 79% 2.0 mph WNW3.2 kmh WNW -- 29.89 in1012.2 mb 0.00 in0.0 mm 0.00 in0.0 mm 0.03 in0.8 mm
05:00 AM 80.2°F26.8°C 73.1°F22.8°C 79% 3.0 mph WNW4.8 kmh WNW -- 29.89 in1012.2 mb 0.00 in0.0 mm 0.00 in0.0 mm 0.03 in0.8 mm
05:05 AM 80.1°F26.7°C 73.0°F22.8°C 79% 3.0 mph W4.8 kmh W -- 29.89 in1012.2 mb 0.00 in0.0 mm 0.00 in0.0 mm 0.03 in0.8 mm
05:10 AM 80.2°F26.8°C 73.1°F22.8°C 79% 3.0 mph WSW4.8 kmh WSW -- 29.89 in1012.2 mb 0.00 in0.0 mm 0.00 in0.0 mm 0.03 in0.8 mm
05:15 AM 80.2°F26.8°C 73.1°F22.8°C 79% 3.0 mph W4.8 kmh W -- 29.89 in1012.2 mb 0.00 in0.0 mm 0.00 in0.0 mm 0.03 in0.8 mm
05:20 AM 80.1°F26.7°C 73.0°F22.8°C 79% 3.0 mph W4.8 kmh W -- 29.89 in1012.2 mb 0.00 in0.0 mm 0.00 in0.0 mm 0.03 in0.8 mm
05:30 AM 80.1°F26.7°C 73.0°F22.8°C 79% 3.0 mph WSW4.8 kmh WSW -- 29.89 in1012.2 mb 0.00 in0.0 mm 0.00 in0.0 mm 0.03 in0.8 mm
05:35 AM 80.1°F26.7°C 73.0°F22.8°C 79% 2.0 mph W3.2 kmh W -- 29.89 in1012.2 mb 0.00 in0.0 mm 0.00 in0.0 mm 0.03 in0.8 mm
05:40 AM 79.9°F26.6°C 73.1°F22.8°C 80% 4.0 mph W6.4 kmh W -- 29.89 in1012.2 mb 0.00 in0.0 mm 0.00 in0.0 mm 0.03 in0.8 mm
05:45 AM 79.9°F26.6°C 73.1°F22.8°C 80% 2.0 mph WSW3.2 kmh WSW -- 29.89 in1012.2 mb 0.00 in0.0 mm 0.00 in0.0 mm 0.03 in0.8 mm
05:50 AM 80.1°F26.7°C 73.3°F22.9°C 80% 4.0 mph WNW6.4 kmh WNW -- 29.89 in1012.2 mb 0.00 in0.0 mm 0.00 in0.0 mm 0.03 in0.8 mm
05:55 AM 80.1°F26.7°C 73.0°F22.8°C 79% 7.0 mph W11.3 kmh W -- 29.89 in1012.2 mb 0.00 in0.0 mm 0.00 in0.0 mm 0.03 in0.8 mm
06:00 AM 80.2°F26.8°C 73.1°F22.8°C 79% 2.0 mph SW3.2 kmh SW -- 29.89 in1012.2 mb 0.00 in0.0 mm 0.00 in0.0 mm 0.03 in0.8 mm
06:05 AM 80.2°F26.8°C 73.1°F22.8°C 79% 3.0 mph WSW4.8 kmh WSW -- 29.90 in1012.5 mb 0.00 in0.0 mm 0.00 in0.0 mm 0.03 in0.8 mm
06:10 AM 80.2°F26.8°C 73.5°F23.1°C 80% 4.0 mph W6.4 kmh W -- 29.90 in1012.5 mb 0.00 in0.0 mm 0.00 in0.0 mm 0.03 in0.8 mm
06:15 AM 80.4°F26.9°C 73.7°F23.2°C 80% 3.0 mph W4.8 kmh W -- 29.90 in1012.5 mb 0.00 in0.0 mm 0.00 in0.0 mm 0.03 in0.8 mm
06:20 AM 80.2°F26.8°C 73.5°F23.1°C 80% 3.0 mph W4.8 kmh W -- 29.90 in1012.5 mb 0.00 in0.0 mm 0.00 in0.0 mm 0.03 in0.8 mm
06:25 AM 80.2°F26.8°C 73.5°F23.1°C 80% 3.0 mph WNW4.8 kmh WNW -- 29.90 in1012.5 mb 0.00 in0.0 mm 0.00 in0.0 mm 0.03 in0.8 mm
06:30 AM 80.2°F26.8°C 73.5°F23.1°C 80% 2.0 mph W3.2 kmh W -- 29.91 in1012.9 mb 0.00 in0.0 mm 0.00 in0.0 mm 0.03 in0.8 mm
06:40 AM 80.2°F26.8°C 73.9°F23.3°C 81% 2.0 mph W3.2 kmh W -- 29.91 in1012.9 mb 0.00 in0.0 mm 0.00 in0.0 mm 0.03 in0.8 mm
06:45 AM 80.4°F26.9°C 73.7°F23.2°C 80% 2.0 mph WNW3.2 kmh WNW -- 29.92 in1013.2 mb 0.00 in0.0 mm 0.00 in0.0 mm 0.03 in0.8 mm
06:50 AM 80.4°F26.9°C 73.7°F23.2°C 80% 1.0 mph W1.6 kmh W -- 29.92 in1013.2 mb 0.00 in0.0 mm 0.00 in0.0 mm 0.03 in0.8 mm
06:55 AM 80.4°F26.9°C 73.7°F23.2°C 80% 2.0 mph WNW3.2 kmh WNW -- 29.92 in1013.2 mb 0.00 in0.0 mm 0.00 in0.0 mm 0.03 in0.8 mm
07:00 AM 80.6°F27.0°C 73.9°F23.3°C 80% 2.0 mph W3.2 kmh W -- 29.93 in1013.5 mb 0.00 in0.0 mm 0.00 in0.0 mm 0.03 in0.8 mm
07:10 AM 80.6°F27.0°C 73.9°F23.3°C 80% 2.0 mph W3.2 kmh W -- 29.92 in1013.2 mb 0.00 in0.0 mm 0.00 in0.0 mm 0.03 in0.8 mm
07:15 AM 80.8°F27.1°C 74.0°F23.3°C 80% 2.0 mph W3.2 kmh W -- 29.93 in1013.5 mb 0.00 in0.0 mm 0.00 in0.0 mm 0.03 in0.8 mm
07:20 AM 80.8°F27.1°C 74.0°F23.3°C 80% Calm Calm -- 29.93 in1013.5 mb 0.00 in0.0 mm 0.00 in0.0 mm 0.03 in0.8 mm
07:25 AM 81.0°F27.2°C 74.2°F23.4°C 80% 2.0 mph W3.2 kmh W -- 29.93 in1013.5 mb 0.00 in0.0 mm 0.00 in0.0 mm 0.03 in0.8 mm
07:35 AM 81.3°F27.4°C 74.2°F23.4°C 79% 2.0 mph W3.2 kmh W -- 29.93 in1013.5 mb 0.00 in0.0 mm 0.00 in0.0 mm 0.03 in0.8 mm
07:40 AM 81.3°F27.4°C 74.2°F23.4°C 79% 3.0 mph W4.8 kmh W -- 29.93 in1013.5 mb 0.00 in0.0 mm 0.00 in0.0 mm 0.03 in0.8 mm
07:45 AM 81.7°F27.6°C 74.5°F23.6°C 79% 2.0 mph W3.2 kmh W -- 29.94 in1013.9 mb 0.00 in0.0 mm 0.00 in0.0 mm 0.03 in0.8 mm
07:55 AM 82.0°F27.8°C 74.9°F23.8°C 79% 2.0 mph W3.2 kmh W -- 29.94 in1013.9 mb 0.00 in0.0 mm 0.00 in0.0 mm 0.03 in0.8 mm
08:00 AM 82.2°F27.9°C 75.1°F23.9°C 79% 4.0 mph WNW6.4 kmh WNW -- 29.94 in1013.9 mb 0.00 in0.0 mm 0.00 in0.0 mm 0.03 in0.8 mm
08:05 AM 82.4°F28.0°C 74.8°F23.8°C 78% 5.0 mph SW8.0 kmh SW -- 29.94 in1013.9 mb 0.00 in0.0 mm 0.00 in0.0 mm 0.03 in0.8 mm
08:10 AM 82.6°F28.1°C 74.6°F23.7°C 77% 4.0 mph WNW6.4 kmh WNW -- 29.94 in1013.9 mb 0.00 in0.0 mm 0.00 in0.0 mm 0.03 in0.8 mm
08:15 AM 82.9°F28.3°C 74.6°F23.7°C 76% 4.0 mph W6.4 kmh W -- 29.94 in1013.9 mb 0.00 in0.0 mm 0.00 in0.0 mm 0.03 in0.8 mm
08:20 AM 83.1°F28.4°C 74.8°F23.8°C 76% 2.0 mph WSW3.2 kmh WSW -- 29.94 in1013.9 mb 0.00 in0.0 mm 0.00 in0.0 mm 0.03 in0.8 mm
08:25 AM 83.3°F28.5°C 74.9°F23.8°C 76% 6.0 mph SW9.7 kmh SW -- 29.95 in1014.2 mb 0.00 in0.0 mm 0.00 in0.0 mm 0.03 in0.8 mm
08:35 AM 83.7°F28.7°C 74.9°F23.8°C 75% 3.0 mph WNW4.8 kmh WNW -- 29.95 in1014.2 mb 0.00 in0.0 mm 0.00 in0.0 mm 0.03 in0.8 mm
08:45 AM 84.2°F29.0°C 75.0°F23.9°C 74% 2.0 mph WNW3.2 kmh WNW -- 29.95 in1014.2 mb 0.00 in0.0 mm 0.00 in0.0 mm 0.03 in0.8 mm
08:50 AM 84.2°F29.0°C 75.0°F23.9°C 74% 4.0 mph SW6.4 kmh SW -- 29.95 in1014.2 mb 0.00 in0.0 mm 0.00 in0.0 mm 0.03 in0.8 mm
08:55 AM 84.6°F29.2°C 75.0°F23.9°C 73% 3.0 mph W4.8 kmh W -- 29.95 in1014.2 mb 0.00 in0.0 mm 0.00 in0.0 mm 0.03 in0.8 mm
09:00 AM 84.9°F29.4°C 75.3°F24.1°C 73% 3.0 mph W4.8 kmh W -- 29.95 in1014.2 mb 0.00 in0.0 mm 0.00 in0.0 mm 0.03 in0.8 mm
09:05 AM 83.7°F28.7°C 74.9°F23.8°C 75% 3.0 mph WNW4.8 kmh WNW -- 29.95 in1014.2 mb 0.00 in0.0 mm 0.00 in0.0 mm 0.03 in0.8 mm
09:10 AM 84.0°F28.9°C 75.2°F24.0°C 75% 5.0 mph WNW8.0 kmh WNW -- 29.95 in1014.2 mb 0.00 in0.0 mm 0.00 in0.0 mm 0.03 in0.8 mm
09:15 AM 84.6°F29.2°C 75.4°F24.1°C 74% 5.0 mph WNW8.0 kmh WNW -- 29.95 in1014.2 mb 0.00 in0.0 mm 0.00 in0.0 mm 0.03 in0.8 mm
09:20 AM 84.7°F29.3°C 75.5°F24.2°C 74% 2.0 mph W3.2 kmh W -- 29.95 in1014.2 mb 0.00 in0.0 mm 0.00 in0.0 mm 0.03 in0.8 mm
09:25 AM 85.6°F29.8°C 75.6°F24.2°C 72% 2.0 mph WNW3.2 kmh WNW -- 29.95 in1014.2 mb 0.00 in0.0 mm 0.00 in0.0 mm 0.03 in0.8 mm
09:30 AM 85.8°F29.9°C 75.8°F24.3°C 72% 3.0 mph WNW4.8 kmh WNW -- 29.94 in1013.9 mb 0.00 in0.0 mm 0.00 in0.0 mm 0.03 in0.8 mm
09:35 AM 86.7°F30.4°C 76.6°F24.8°C 72% 3.0 mph W4.8 kmh W -- 29.94 in1013.9 mb 0.00 in0.0 mm 0.00 in0.0 mm 0.03 in0.8 mm
09:40 AM 87.3°F30.7°C 76.7°F24.8°C 71% 1.0 mph WNW1.6 kmh WNW -- 29.94 in1013.9 mb 0.00 in0.0 mm 0.00 in0.0 mm 0.03 in0.8 mm
09:45 AM 87.4°F30.8°C 76.5°F24.7°C 70% 4.0 mph WNW6.4 kmh WNW -- 29.94 in1013.9 mb 0.00 in0.0 mm 0.00 in0.0 mm 0.03 in0.8 mm
09:50 AM 87.8°F31.0°C 77.2°F25.1°C 71% 3.0 mph WNW4.8 kmh WNW -- 29.94 in1013.9 mb 0.00 in0.0 mm 0.00 in0.0 mm 0.03 in0.8 mm
09:55 AM 88.7°F31.5°C 77.2°F25.1°C 69% 2.0 mph W3.2 kmh W -- 29.94 in1013.9 mb 0.00 in0.0 mm 0.00 in0.0 mm 0.03 in0.8 mm
10:00 AM 89.4°F31.9°C 77.9°F25.5°C 69% 2.0 mph E3.2 kmh E -- 29.94 in1013.9 mb 0.00 in0.0 mm 0.00 in0.0 mm 0.03 in0.8 mm
10:05 AM 89.8°F32.1°C 77.8°F25.4°C 68% 2.0 mph W3.2 kmh W -- 29.94 in1013.9 mb 0.00 in0.0 mm 0.00 in0.0 mm 0.03 in0.8 mm
10:10 AM 90.0°F32.2°C 78.9°F26.1°C 70% 2.0 mph W3.2 kmh W -- 29.95 in1014.2 mb 0.00 in0.0 mm 0.00 in0.0 mm 0.03 in0.8 mm
10:15 AM 89.8°F32.1°C 77.8°F25.4°C 68% 3.0 mph W4.8 kmh W -- 29.94 in1013.9 mb 0.00 in0.0 mm 0.00 in0.0 mm 0.03 in0.8 mm
10:20 AM 90.3°F32.4°C 78.4°F25.8°C 68% 1.0 mph WNW1.6 kmh WNW -- 29.95 in1014.2 mb 0.00 in0.0 mm 0.00 in0.0 mm 0.03 in0.8 mm
10:25 AM 91.0°F32.8°C 78.6°F25.9°C 67% 4.0 mph W6.4 kmh W -- 29.94 in1013.9 mb 0.00 in0.0 mm 0.00 in0.0 mm 0.03 in0.8 mm
10:30 AM 91.2°F32.9°C 78.3°F25.7°C 66% 4.0 mph W6.4 kmh W -- 29.94 in1013.9 mb 0.00 in0.0 mm 0.00 in0.0 mm 0.03 in0.8 mm
10:35 AM 91.4°F33.0°C 78.0°F25.6°C 65% 3.0 mph WNW4.8 kmh WNW -- 29.94 in1013.9 mb 0.00 in0.0 mm 0.00 in0.0 mm 0.03 in0.8 mm
10:40 AM 91.6°F33.1°C 78.7°F25.9°C 66% 2.0 mph WNW3.2 kmh WNW -- 29.94 in1013.9 mb 0.00 in0.0 mm 0.00 in0.0 mm 0.03 in0.8 mm
10:45 AM 91.0°F32.8°C 78.1°F25.6°C 66% 2.0 mph W3.2 kmh W -- 29.94 in1013.9 mb 0.00 in0.0 mm 0.00 in0.0 mm 0.03 in0.8 mm
10:50 AM 91.2°F32.9°C 78.8°F26.0°C 67% 2.0 mph W3.2 kmh W -- 29.94 in1013.9 mb 0.00 in0.0 mm 0.00 in0.0 mm 0.03 in0.8 mm
10:55 AM 91.4°F33.0°C 78.9°F26.1°C 67% 3.0 mph W4.8 kmh W -- 29.94 in1013.9 mb 0.00 in0.0 mm 0.00 in0.0 mm 0.03 in0.8 mm
11:00 AM 91.6°F33.1°C 78.7°F25.9°C 66% 2.0 mph W3.2 kmh W -- 29.94 in1013.9 mb 0.00 in0.0 mm 0.00 in0.0 mm 0.03 in0.8 mm
11:05 AM 92.8°F33.8°C 79.4°F26.3°C 65% 2.0 mph WNW3.2 kmh WNW -- 29.94 in1013.9 mb 0.00 in0.0 mm 0.00 in0.0 mm 0.03 in0.8 mm
11:10 AM 92.1°F33.4°C 79.6°F26.4°C 67% 2.0 mph W3.2 kmh W -- 29.94 in1013.9 mb 0.00 in0.0 mm 0.00 in0.0 mm 0.03 in0.8 mm
11:15 AM 91.9°F33.3°C 80.4°F26.9°C 69% 4.0 mph SW6.4 kmh SW -- 29.94 in1013.9 mb 0.00 in0.0 mm 0.00 in0.0 mm 0.03 in0.8 mm
11:20 AM 92.1°F33.4°C 79.6°F26.4°C 67% 2.0 mph W3.2 kmh W -- 29.94 in1013.9 mb 0.00 in0.0 mm 0.00 in0.0 mm 0.03 in0.8 mm
11:25 AM 92.3°F33.5°C 79.8°F26.6°C 67% 3.0 mph NW4.8 kmh NW -- 29.94 in1013.9 mb 0.00 in0.0 mm 0.00 in0.0 mm 0.03 in0.8 mm
11:30 AM 92.7°F33.7°C 79.2°F26.2°C 65% 7.0 mph WSW11.3 kmh WSW -- 29.94 in1013.9 mb 0.00 in0.0 mm 0.00 in0.0 mm 0.03 in0.8 mm
11:35 AM 93.0°F33.9°C 80.5°F26.9°C 67% 2.0 mph W3.2 kmh W -- 29.94 in1013.9 mb 0.00 in0.0 mm 0.00 in0.0 mm 0.03 in0.8 mm
11:40 AM 93.7°F34.3°C 79.3°F26.3°C 63% 3.0 mph W4.8 kmh W -- 29.94 in1013.9 mb 0.00 in0.0 mm 0.00 in0.0 mm 0.03 in0.8 mm
11:45 AM 94.8°F34.9°C 80.8°F27.1°C 64% 2.0 mph W3.2 kmh W -- 29.94 in1013.9 mb 0.00 in0.0 mm 0.00 in0.0 mm 0.03 in0.8 mm
11:50 AM 95.0°F35.0°C 80.0°F26.7°C 62% 4.0 mph WNW6.4 kmh WNW -- 29.93 in1013.5 mb 0.00 in0.0 mm 0.00 in0.0 mm 0.03 in0.8 mm
11:55 AM 95.2°F35.1°C 80.7°F27.1°C 63% 4.0 mph NW6.4 kmh NW -- 29.93 in1013.5 mb 0.00 in0.0 mm 0.00 in0.0 mm 0.03 in0.8 mm
12:00 PM 95.0°F35.0°C 79.0°F26.1°C 60% 2.0 mph W3.2 kmh W -- 29.93 in1013.5 mb 0.00 in0.0 mm 0.00 in0.0 mm 0.03 in0.8 mm
12:05 PM 94.1°F34.5°C 78.2°F25.7°C 60% 3.0 mph W4.8 kmh W -- 29.94 in1013.9 mb 0.00 in0.0 mm 0.00 in0.0 mm 0.03 in0.8 mm
12:10 PM 94.3°F34.6°C 79.8°F26.6°C 63% 3.0 mph NW4.8 kmh NW -- 29.94 in1013.9 mb 0.00 in0.0 mm 0.00 in0.0 mm 0.03 in0.8 mm
12:15 PM 94.8°F34.9°C 78.3°F25.7°C 59% 3.0 mph NE4.8 kmh NE -- 29.93 in1013.5 mb 0.00 in0.0 mm 0.00 in0.0 mm 0.03 in0.8 mm
12:20 PM 95.7°F35.4°C 78.7°F25.9°C 58% 6.0 mph WNW9.7 kmh WNW -- 29.93 in1013.5 mb 0.00 in0.0 mm 0.00 in0.0 mm 0.03 in0.8 mm
12:25 PM 96.3°F35.7°C 78.1°F25.6°C 56% 5.0 mph W8.0 kmh W -- 29.93 in1013.5 mb 0.00 in0.0 mm 0.00 in0.0 mm 0.03 in0.8 mm
12:30 PM 96.3°F35.7°C 78.1°F25.6°C 56% 4.0 mph WNW6.4 kmh WNW -- 29.93 in1013.5 mb 0.00 in0.0 mm 0.00 in0.0 mm 0.03 in0.8 mm
12:35 PM 97.2°F36.2°C 79.0°F26.1°C 56% 4.0 mph WNW6.4 kmh WNW -- 29.93 in1013.5 mb 0.00 in0.0 mm 0.00 in0.0 mm 0.03 in0.8 mm
12:40 PM 96.6°F35.9°C 79.0°F26.1°C 57% 4.0 mph WNW6.4 kmh WNW -- 29.93 in1013.5 mb 0.00 in0.0 mm 0.00 in0.0 mm 0.03 in0.8 mm
12:45 PM 97.2°F36.2°C 79.5°F26.4°C 57% 4.0 mph WNW6.4 kmh WNW -- 29.93 in1013.5 mb 0.00 in0.0 mm 0.00 in0.0 mm 0.03 in0.8 mm
12:50 PM 97.9°F36.6°C 80.2°F26.8°C 57% 2.0 mph WNW3.2 kmh WNW -- 29.93 in1013.5 mb 0.00 in0.0 mm 0.00 in0.0 mm 0.03 in0.8 mm
12:55 PM 97.7°F36.5°C 78.9°F26.1°C 55% 5.0 mph W8.0 kmh W -- 29.93 in1013.5 mb 0.00 in0.0 mm 0.00 in0.0 mm 0.03 in0.8 mm
01:00 PM 97.7°F36.5°C 79.5°F26.4°C 56% 5.0 mph WNW8.0 kmh WNW -- 29.93 in1013.5 mb 0.00 in0.0 mm 0.00 in0.0 mm 0.03 in0.8 mm
01:05 PM 97.3°F36.3°C 79.7°F26.5°C 57% 3.0 mph WNW4.8 kmh WNW -- 29.93 in1013.5 mb 0.00 in0.0 mm 0.00 in0.0 mm 0.03 in0.8 mm
01:10 PM 98.2°F36.8°C 80.0°F26.7°C 56% 3.0 mph W4.8 kmh W -- 29.93 in1013.5 mb 0.00 in0.0 mm 0.00 in0.0 mm 0.03 in0.8 mm
01:15 PM 98.2°F36.8°C 78.9°F26.1°C 54% 6.0 mph WNW9.7 kmh WNW -- 29.93 in1013.5 mb 0.00 in0.0 mm 0.00 in0.0 mm 0.03 in0.8 mm
01:20 PM 98.4°F36.9°C 79.6°F26.4°C 55% 4.0 mph NW6.4 kmh NW -- 29.93 in1013.5 mb 0.00 in0.0 mm 0.00 in0.0 mm 0.03 in0.8 mm
01:25 PM 98.1°F36.7°C 79.3°F26.3°C 55% 4.0 mph WSW6.4 kmh WSW -- 29.92 in1013.2 mb 0.00 in0.0 mm 0.00 in0.0 mm 0.03 in0.8 mm
01:30 PM 98.8°F37.1°C 79.9°F26.6°C 55% 3.0 mph W4.8 kmh W -- 29.92 in1013.2 mb 0.00 in0.0 mm 0.00 in0.0 mm 0.03 in0.8 mm
01:35 PM 97.9°F36.6°C 80.2°F26.8°C 57% 2.0 mph W3.2 kmh W -- 29.92 in1013.2 mb 0.00 in0.0 mm 0.00 in0.0 mm 0.03 in0.8 mm
01:40 PM 98.1°F36.7°C 80.3°F26.8°C 57% 4.0 mph SW6.4 kmh SW -- 29.92 in1013.2 mb 0.00 in0.0 mm 0.00 in0.0 mm 0.03 in0.8 mm
01:45 PM 99.0°F37.2°C 80.1°F26.7°C 55% 7.0 mph W11.3 kmh W -- 29.92 in1013.2 mb 0.00 in0.0 mm 0.00 in0.0 mm 0.03 in0.8 mm
01:50 PM 98.6°F37.0°C 79.8°F26.6°C 55% 4.0 mph WNW6.4 kmh WNW -- 29.92 in1013.2 mb 0.00 in0.0 mm 0.00 in0.0 mm 0.03 in0.8 mm
01:55 PM 99.0°F37.2°C 80.1°F26.7°C 55% 3.0 mph W4.8 kmh W -- 29.91 in1012.9 mb 0.00 in0.0 mm 0.00 in0.0 mm 0.03 in0.8 mm
02:00 PM 99.3°F37.4°C 79.3°F26.3°C 53% 5.0 mph W8.0 kmh W -- 29.91 in1012.9 mb 0.00 in0.0 mm 0.00 in0.0 mm 0.03 in0.8 mm
02:05 PM 99.3°F37.4°C 80.4°F26.9°C 55% 5.0 mph W8.0 kmh W -- 29.91 in1012.9 mb 0.00 in0.0 mm 0.00 in0.0 mm 0.03 in0.8 mm
02:10 PM 99.7°F37.6°C 79.7°F26.5°C 53% 3.0 mph WNW4.8 kmh WNW -- 29.91 in1012.9 mb 0.00 in0.0 mm 0.00 in0.0 mm 0.03 in0.8 mm
02:15 PM 100.6°F38.1°C 79.9°F26.6°C 52% 6.0 mph WNW9.7 kmh WNW -- 29.91 in1012.9 mb 0.00 in0.0 mm 0.00 in0.0 mm 0.03 in0.8 mm
02:20 PM 100.0°F37.8°C 80.0°F26.7°C 53% 2.0 mph WNW3.2 kmh WNW -- 29.90 in1012.5 mb 0.00 in0.0 mm 0.00 in0.0 mm 0.03 in0.8 mm
02:25 PM 100.2°F37.9°C 79.6°F26.4°C 52% 5.0 mph W8.0 kmh W -- 29.90 in1012.5 mb 0.00 in0.0 mm 0.00 in0.0 mm 0.03 in0.8 mm
02:30 PM 100.8°F38.2°C 79.5°F26.4°C 51% 2.0 mph SW3.2 kmh SW -- 29.90 in1012.5 mb 0.00 in0.0 mm 0.00 in0.0 mm 0.03 in0.8 mm
02:35 PM 99.7°F37.6°C 79.7°F26.5°C 53% 2.0 mph WNW3.2 kmh WNW -- 29.90 in1012.5 mb 0.00 in0.0 mm 0.00 in0.0 mm 0.03 in0.8 mm
02:40 PM 100.2°F37.9°C 80.2°F26.8°C 53% 4.0 mph W6.4 kmh W -- 29.90 in1012.5 mb 0.00 in0.0 mm 0.00 in0.0 mm 0.03 in0.8 mm
02:45 PM 99.3°F37.4°C 79.9°F26.6°C 54% 6.0 mph W9.7 kmh W -- 29.90 in1012.5 mb 0.00 in0.0 mm 0.00 in0.0 mm 0.03 in0.8 mm
02:50 PM 100.8°F38.2°C 80.7°F27.1°C 53% 5.0 mph WSW8.0 kmh WSW -- 29.90 in1012.5 mb 0.00 in0.0 mm 0.00 in0.0 mm 0.03 in0.8 mm
02:55 PM 100.2°F37.9°C 80.7°F27.1°C 54% 7.0 mph WSW11.3 kmh WSW -- 29.90 in1012.5 mb 0.00 in0.0 mm 0.00 in0.0 mm 0.03 in0.8 mm
03:00 PM 99.7°F37.6°C 78.5°F25.8°C 51% 4.0 mph W6.4 kmh W -- 29.90 in1012.5 mb 0.00 in0.0 mm 0.00 in0.0 mm 0.03 in0.8 mm
03:05 PM 99.5°F37.5°C 77.1°F25.1°C 49% 3.0 mph W4.8 kmh W -- 29.90 in1012.5 mb 0.00 in0.0 mm 0.00 in0.0 mm 0.03 in0.8 mm
03:10 PM 99.3°F37.4°C 77.6°F25.3°C 50% 3.0 mph W4.8 kmh W -- 29.90 in1012.5 mb 0.00 in0.0 mm 0.00 in0.0 mm 0.03 in0.8 mm
03:15 PM 99.5°F37.5°C 78.3°F25.7°C 51% 5.0 mph ESE8.0 kmh ESE -- 29.90 in1012.5 mb 0.00 in0.0 mm 0.00 in0.0 mm 0.03 in0.8 mm
03:20 PM 99.1°F37.3°C 78.6°F25.9°C 52% 5.0 mph WSW8.0 kmh WSW -- 29.90 in1012.5 mb 0.00 in0.0 mm 0.00 in0.0 mm 0.03 in0.8 mm
03:25 PM 98.6°F37.0°C 78.6°F25.9°C 53% 3.0 mph W4.8 kmh W -- 29.90 in1012.5 mb 0.00 in0.0 mm 0.00 in0.0 mm 0.03 in0.8 mm
03:30 PM 99.1°F37.3°C 79.1°F26.2°C 53% 6.0 mph W9.7 kmh W -- 29.90 in1012.5 mb 0.00 in0.0 mm 0.00 in0.0 mm 0.03 in0.8 mm
03:35 PM 99.1°F37.3°C 78.6°F25.9°C 52% 6.0 mph W9.7 kmh W -- 29.90 in1012.5 mb 0.00 in0.0 mm 0.00 in0.0 mm 0.03 in0.8 mm
03:40 PM 98.8°F37.1°C 79.4°F26.3°C 54% 4.0 mph WNW6.4 kmh WNW -- 29.90 in1012.5 mb 0.00 in0.0 mm 0.00 in0.0 mm 0.03 in0.8 mm
03:45 PM 99.3°F37.4°C 77.6°F25.3°C 50% 10.0 mph SW16.1 kmh SW -- 29.90 in1012.5 mb 0.00 in0.0 mm 0.00 in0.0 mm 0.03 in0.8 mm
03:50 PM 99.0°F37.2°C 79.0°F26.1°C 53% 4.0 mph W6.4 kmh W -- 29.90 in1012.5 mb 0.00 in0.0 mm 0.00 in0.0 mm 0.03 in0.8 mm
03:55 PM 98.6°F37.0°C 78.6°F25.9°C 53% 4.0 mph W6.4 kmh W -- 29.90 in1012.5 mb 0.00 in0.0 mm 0.00 in0.0 mm 0.03 in0.8 mm
04:00 PM 97.5°F36.4°C 78.8°F26.0°C 55% 2.0 mph W3.2 kmh W -- 29.90 in1012.5 mb 0.00 in0.0 mm 0.00 in0.0 mm 0.03 in0.8 mm
04:05 PM 97.9°F36.6°C 78.0°F25.6°C 53% 3.0 mph SW4.8 kmh SW -- 29.90 in1012.5 mb 0.00 in0.0 mm 0.00 in0.0 mm 0.03 in0.8 mm
04:10 PM 97.3°F36.3°C 78.0°F25.6°C 54% 2.0 mph WNW3.2 kmh WNW -- 29.90 in1012.5 mb 0.00 in0.0 mm 0.00 in0.0 mm 0.03 in0.8 mm
04:15 PM 97.3°F36.3°C 78.0°F25.6°C 54% 3.0 mph W4.8 kmh W -- 29.90 in1012.5 mb 0.00 in0.0 mm 0.00 in0.0 mm 0.03 in0.8 mm
04:20 PM 96.6°F35.9°C 77.9°F25.5°C 55% 2.0 mph W3.2 kmh W -- 29.90 in1012.5 mb 0.00 in0.0 mm 0.00 in0.0 mm 0.03 in0.8 mm
04:25 PM 96.4°F35.8°C 78.3°F25.7°C 56% 4.0 mph NW6.4 kmh NW -- 29.89 in1012.2 mb 0.00 in0.0 mm 0.00 in0.0 mm 0.03 in0.8 mm
04:30 PM 97.2°F36.2°C 77.9°F25.5°C 54% 4.0 mph W6.4 kmh W -- 29.90 in1012.5 mb 0.00 in0.0 mm 0.00 in0.0 mm 0.03 in0.8 mm
04:35 PM 97.3°F36.3°C 78.6°F25.9°C 55% 3.0 mph W4.8 kmh W -- 29.90 in1012.5 mb 0.00 in0.0 mm 0.00 in0.0 mm 0.03 in0.8 mm
04:40 PM 97.2°F36.2°C 78.4°F25.8°C 55% 5.0 mph W8.0 kmh W -- 29.89 in1012.2 mb 0.00 in0.0 mm 0.00 in0.0 mm 0.03 in0.8 mm
04:45 PM 97.2°F36.2°C 78.4°F25.8°C 55% 3.0 mph W4.8 kmh W -- 29.90 in1012.5 mb 0.00 in0.0 mm 0.00 in0.0 mm 0.03 in0.8 mm
04:50 PM 97.0°F36.1°C 78.3°F25.7°C 55% 3.0 mph W4.8 kmh W -- 29.90 in1012.5 mb 0.00 in0.0 mm 0.00 in0.0 mm 0.03 in0.8 mm
04:55 PM 97.3°F36.3°C 78.0°F25.6°C 54% 3.0 mph W4.8 kmh W -- 29.90 in1012.5 mb 0.00 in0.0 mm 0.00 in0.0 mm 0.03 in0.8 mm
05:00 PM 97.2°F36.2°C 77.9°F25.5°C 54% 2.0 mph W3.2 kmh W -- 29.90 in1012.5 mb 0.00 in0.0 mm 0.00 in0.0 mm 0.03 in0.8 mm
05:05 PM 97.2°F36.2°C 77.9°F25.5°C 54% 1.0 mph W1.6 kmh W -- 29.90 in1012.5 mb 0.00 in0.0 mm 0.00 in0.0 mm 0.03 in0.8 mm
05:10 PM 96.6°F35.9°C 77.4°F25.2°C 54% 3.0 mph W4.8 kmh W -- 29.90 in1012.5 mb 0.00 in0.0 mm 0.00 in0.0 mm 0.03 in0.8 mm
05:15 PM 96.4°F35.8°C 77.2°F25.1°C 54% 4.0 mph WNW6.4 kmh WNW -- 29.90 in1012.5 mb 0.00 in0.0 mm 0.00 in0.0 mm 0.03 in0.8 mm
05:20 PM 96.4°F35.8°C 77.2°F25.1°C 54% 4.0 mph W6.4 kmh W -- 29.90 in1012.5 mb 0.00 in0.0 mm 0.00 in0.0 mm 0.03 in0.8 mm
05:25 PM 96.4°F35.8°C 77.7°F25.4°C 55% 2.0 mph W3.2 kmh W -- 29.90 in1012.5 mb 0.00 in0.0 mm 0.00 in0.0 mm 0.03 in0.8 mm
05:30 PM 96.3°F35.7°C 77.0°F25.0°C 54% 3.0 mph WSW4.8 kmh WSW -- 29.90 in1012.5 mb 0.00 in0.0 mm 0.00 in0.0 mm 0.03 in0.8 mm
05:35 PM 96.4°F35.8°C 77.7°F25.4°C 55% 4.0 mph W6.4 kmh W -- 29.90 in1012.5 mb 0.00 in0.0 mm 0.00 in0.0 mm 0.03 in0.8 mm
05:40 PM 95.9°F35.5°C 77.8°F25.4°C 56% 1.0 mph W1.6 kmh W -- 29.91 in1012.9 mb 0.00 in0.0 mm 0.00 in0.0 mm 0.03 in0.8 mm
05:45 PM 95.9°F35.5°C 77.8°F25.4°C 56% 2.0 mph W3.2 kmh W -- 29.91 in1012.9 mb 0.00 in0.0 mm 0.00 in0.0 mm 0.03 in0.8 mm
05:50 PM 95.7°F35.4°C 77.6°F25.3°C 56% 2.0 mph W3.2 kmh W -- 29.91 in1012.9 mb 0.00 in0.0 mm 0.00 in0.0 mm 0.03 in0.8 mm
05:55 PM 95.5°F35.3°C 77.4°F25.2°C 56% 3.0 mph WSW4.8 kmh WSW -- 29.91 in1012.9 mb 0.00 in0.0 mm 0.00 in0.0 mm 0.03 in0.8 mm
06:00 PM 95.2°F35.1°C 78.2°F25.7°C 58% 2.0 mph SW3.2 kmh SW -- 29.91 in1012.9 mb 0.00 in0.0 mm 0.00 in0.0 mm 0.03 in0.8 mm
06:05 PM 94.8°F34.9°C 77.3°F25.2°C 57% 4.0 mph SW6.4 kmh SW -- 29.91 in1012.9 mb 0.00 in0.0 mm 0.00 in0.0 mm 0.03 in0.8 mm
06:10 PM 94.5°F34.7°C 77.5°F25.3°C 58% 3.0 mph NW4.8 kmh NW -- 29.91 in1012.9 mb 0.00 in0.0 mm 0.00 in0.0 mm 0.03 in0.8 mm
06:15 PM 93.7°F34.3°C 76.8°F24.9°C 58% 2.0 mph W3.2 kmh W -- 29.91 in1012.9 mb 0.00 in0.0 mm 0.00 in0.0 mm 0.03 in0.8 mm
06:20 PM 95.0°F35.0°C 77.5°F25.3°C 57% 1.0 mph W1.6 kmh W -- 29.91 in1012.9 mb 1.12 in28.4 mm 13.44 in341.4 mm 1.15 in29.2 mm
06:25 PM 94.6°F34.8°C 77.1°F25.1°C 57% 1.0 mph W1.6 kmh W -- 29.91 in1012.9 mb 1.12 in28.4 mm 0.00 in0.0 mm 1.15 in29.2 mm
06:30 PM 94.1°F34.5°C 77.7°F25.4°C 59% 1.0 mph WNW1.6 kmh WNW -- 29.91 in1012.9 mb 1.12 in28.4 mm 0.00 in0.0 mm 1.15 in29.2 mm
06:35 PM 93.7°F34.3°C 77.3°F25.2°C 59% 1.0 mph W1.6 kmh W -- 29.92 in1013.2 mb 1.12 in28.4 mm 0.00 in0.0 mm 1.15 in29.2 mm
06:40 PM 93.9°F34.4°C 77.5°F25.3°C 59% Calm Calm -- 29.92 in1013.2 mb 1.12 in28.4 mm 0.00 in0.0 mm 1.15 in29.2 mm
06:50 PM 92.8°F33.8°C 77.0°F25.0°C 60% Calm Calm -- 29.92 in1013.2 mb 1.12 in28.4 mm 0.00 in0.0 mm 1.15 in29.2 mm
06:55 PM 92.7°F33.7°C 77.3°F25.2°C 61% 4.0 mph WSW6.4 kmh WSW -- 29.92 in1013.2 mb 1.12 in28.4 mm 0.00 in0.0 mm 1.15 in29.2 mm
07:00 PM 92.5°F33.6°C 77.1°F25.1°C 61% 1.0 mph WSW1.6 kmh WSW -- 29.92 in1013.2 mb 1.12 in28.4 mm 0.00 in0.0 mm 1.17 in29.7 mm
07:05 PM 92.1°F33.4°C 76.8°F24.9°C 61% 1.0 mph WSW1.6 kmh WSW -- 29.92 in1013.2 mb 1.12 in28.4 mm 0.00 in0.0 mm 1.17 in29.7 mm
07:10 PM 91.9°F33.3°C 77.1°F25.1°C 62% 2.0 mph SW3.2 kmh SW -- 29.93 in1013.5 mb 1.12 in28.4 mm 0.00 in0.0 mm 1.17 in29.7 mm
07:15 PM 91.8°F33.2°C 76.9°F24.9°C 62% Calm Calm -- 29.92 in1013.2 mb 0.00 in0.0 mm 0.00 in0.0 mm 1.17 in29.7 mm
07:20 PM 91.0°F32.8°C 77.2°F25.1°C 64% Calm Calm -- 29.93 in1013.5 mb 0.00 in0.0 mm 0.00 in0.0 mm 1.17 in29.7 mm
07:25 PM 90.3°F32.4°C 76.5°F24.7°C 64% 3.0 mph SSW4.8 kmh SSW -- 29.93 in1013.5 mb 0.00 in0.0 mm 0.00 in0.0 mm 1.17 in29.7 mm
07:30 PM 90.3°F32.4°C 77.5°F25.3°C 66% 2.0 mph WNW3.2 kmh WNW -- 29.93 in1013.5 mb 0.00 in0.0 mm 0.00 in0.0 mm 1.17 in29.7 mm
07:35 PM 89.8°F32.1°C 77.8°F25.4°C 68% Calm Calm -- 29.93 in1013.5 mb 0.00 in0.0 mm 0.00 in0.0 mm 1.17 in29.7 mm
07:40 PM 89.8°F32.1°C 77.8°F25.4°C 68% 3.0 mph W4.8 kmh W -- 29.93 in1013.5 mb 0.00 in0.0 mm 0.00 in0.0 mm 1.17 in29.7 mm
07:45 PM 89.8°F32.1°C 77.8°F25.4°C 68% 3.0 mph SSW4.8 kmh SSW -- 29.94 in1013.9 mb 0.00 in0.0 mm 0.00 in0.0 mm 1.17 in29.7 mm
07:50 PM 89.6°F32.0°C 78.1°F25.6°C 69% 2.0 mph WSW3.2 kmh WSW -- 29.94 in1013.9 mb 0.00 in0.0 mm 0.00 in0.0 mm 1.17 in29.7 mm
07:55 PM 89.4°F31.9°C 77.9°F25.5°C 69% 4.0 mph W6.4 kmh W -- 29.94 in1013.9 mb 0.00 in0.0 mm 0.00 in0.0 mm 1.17 in29.7 mm
08:00 PM 89.8°F32.1°C 78.3°F25.7°C 69% 1.0 mph WSW1.6 kmh WSW -- 29.94 in1013.9 mb 0.00 in0.0 mm 0.00 in0.0 mm 1.17 in29.7 mm
08:05 PM 90.1°F32.3°C 78.6°F25.9°C 69% Calm Calm -- 29.94 in1013.9 mb 0.00 in0.0 mm 0.00 in0.0 mm 1.17 in29.7 mm
08:10 PM 89.8°F32.1°C 78.7°F25.9°C 70% 2.0 mph W3.2 kmh W -- 29.94 in1013.9 mb 0.00 in0.0 mm 0.00 in0.0 mm 1.17 in29.7 mm
08:15 PM 89.1°F31.7°C 78.5°F25.8°C 71% 2.0 mph SW3.2 kmh SW -- 29.94 in1013.9 mb 0.00 in0.0 mm 0.00 in0.0 mm 1.17 in29.7 mm
08:20 PM 88.5°F31.4°C 77.9°F25.5°C 71% 4.0 mph SW6.4 kmh SW -- 29.94 in1013.9 mb 0.00 in0.0 mm 0.00 in0.0 mm 1.17 in29.7 mm
08:25 PM 88.7°F31.5°C 78.5°F25.8°C 72% 1.0 mph SW1.6 kmh SW -- 29.94 in1013.9 mb 0.00 in0.0 mm 0.00 in0.0 mm 1.17 in29.7 mm
08:30 PM 88.2°F31.2°C 78.0°F25.6°C 72% 3.0 mph W4.8 kmh W -- 29.94 in1013.9 mb 0.00 in0.0 mm 0.00 in0.0 mm 1.17 in29.7 mm
08:35 PM 88.0°F31.1°C 78.3°F25.7°C 73% 1.0 mph WSW1.6 kmh WSW -- 29.94 in1013.9 mb 0.00 in0.0 mm 0.00 in0.0 mm 1.17 in29.7 mm
08:40 PM 87.8°F31.0°C 78.1°F25.6°C 73% 1.0 mph W1.6 kmh W -- 29.95 in1014.2 mb 0.00 in0.0 mm 0.00 in0.0 mm 1.17 in29.7 mm
08:45 PM 87.6°F30.9°C 77.9°F25.5°C 73% 4.0 mph WSW6.4 kmh WSW -- 29.95 in1014.2 mb 0.00 in0.0 mm 0.00 in0.0 mm 1.17 in29.7 mm
08:50 PM 87.6°F30.9°C 78.3°F25.7°C 74% 5.0 mph W8.0 kmh W -- 29.95 in1014.2 mb 0.00 in0.0 mm 0.00 in0.0 mm 1.17 in29.7 mm
08:55 PM 86.9°F30.5°C 78.0°F25.6°C 75% 2.0 mph WSW3.2 kmh WSW -- 29.95 in1014.2 mb 0.00 in0.0 mm 0.00 in0.0 mm 1.17 in29.7 mm
09:00 PM 87.4°F30.8°C 78.6°F25.9°C 75% 2.0 mph SW3.2 kmh SW -- 29.95 in1014.2 mb 0.00 in0.0 mm 0.00 in0.0 mm 1.17 in29.7 mm
09:05 PM 86.9°F30.5°C 78.4°F25.8°C 76% 4.0 mph WSW6.4 kmh WSW -- 29.95 in1014.2 mb 0.00 in0.0 mm 0.00 in0.0 mm 1.17 in29.7 mm
09:10 PM 86.9°F30.5°C 78.4°F25.8°C 76% 3.0 mph SW4.8 kmh SW -- 29.95 in1014.2 mb 0.00 in0.0 mm 0.00 in0.0 mm 1.17 in29.7 mm
09:15 PM 86.9°F30.5°C 78.4°F25.8°C 76% 3.0 mph W4.8 kmh W -- 29.95 in1014.2 mb 0.00 in0.0 mm 0.00 in0.0 mm 1.17 in29.7 mm
09:20 PM 86.7°F30.4°C 78.7°F25.9°C 77% 2.0 mph W3.2 kmh W -- 29.96 in1014.6 mb 0.00 in0.0 mm 0.00 in0.0 mm 1.17 in29.7 mm
09:25 PM 86.5°F30.3°C 78.5°F25.8°C 77% 1.0 mph WSW1.6 kmh WSW -- 29.96 in1014.6 mb 0.00 in0.0 mm 0.00 in0.0 mm 1.17 in29.7 mm
09:30 PM 86.9°F30.5°C 78.8°F26.0°C 77% 1.0 mph W1.6 kmh W -- 29.95 in1014.2 mb 0.00 in0.0 mm 0.00 in0.0 mm 1.17 in29.7 mm
09:35 PM 86.7°F30.4°C 78.7°F25.9°C 77% 4.0 mph S6.4 kmh S -- 29.96 in1014.6 mb 0.00 in0.0 mm 0.00 in0.0 mm 1.17 in29.7 mm
09:40 PM 86.5°F30.3°C 78.5°F25.8°C 77% 2.0 mph W3.2 kmh W -- 29.95 in1014.2 mb 0.00 in0.0 mm 0.00 in0.0 mm 1.17 in29.7 mm
09:45 PM 86.5°F30.3°C 78.9°F26.1°C 78% 1.0 mph W1.6 kmh W -- 29.95 in1014.2 mb 0.00 in0.0 mm 0.00 in0.0 mm 1.17 in29.7 mm
09:50 PM 86.7°F30.4°C 79.0°F26.1°C 78% 2.0 mph W3.2 kmh W -- 29.95 in1014.2 mb 0.00 in0.0 mm 0.00 in0.0 mm 1.17 in29.7 mm
09:55 PM 86.5°F30.3°C 78.9°F26.1°C 78% 4.0 mph WSW6.4 kmh WSW -- 29.95 in1014.2 mb 0.00 in0.0 mm 0.00 in0.0 mm 1.17 in29.7 mm
10:00 PM 86.9°F30.5°C 79.2°F26.2°C 78% 1.0 mph WSW1.6 kmh WSW -- 29.95 in1014.2 mb 0.00 in0.0 mm 0.00 in0.0 mm 1.17 in29.7 mm
10:05 PM 86.4°F30.2°C 78.7°F25.9°C 78% 3.0 mph W4.8 kmh W -- 29.96 in1014.6 mb 0.00 in0.0 mm 0.00 in0.0 mm 1.17 in29.7 mm
10:10 PM 86.4°F30.2°C 79.1°F26.2°C 79% 1.0 mph SSW1.6 kmh SSW -- 29.95 in1014.2 mb 0.00 in0.0 mm 0.00 in0.0 mm 1.17 in29.7 mm
10:15 PM 86.5°F30.3°C 78.9°F26.1°C 78% Calm Calm -- 29.95 in1014.2 mb 0.00 in0.0 mm 0.00 in0.0 mm 1.17 in29.7 mm
10:20 PM 85.1°F29.5°C 78.6°F25.9°C 81% 1.0 mph SSW1.6 kmh SSW -- 29.95 in1014.2 mb 0.00 in0.0 mm 0.00 in0.0 mm 1.17 in29.7 mm
10:25 PM 85.3°F29.6°C 78.8°F26.0°C 81% 2.0 mph W3.2 kmh W -- 29.95 in1014.2 mb 0.00 in0.0 mm 0.00 in0.0 mm 1.17 in29.7 mm
10:30 PM 84.9°F29.4°C 78.4°F25.8°C 81% 2.0 mph WSW3.2 kmh WSW -- 29.96 in1014.6 mb 0.00 in0.0 mm 0.00 in0.0 mm 1.17 in29.7 mm
10:35 PM 85.1°F29.5°C 78.6°F25.9°C 81% 2.0 mph SW3.2 kmh SW -- 29.95 in1014.2 mb 0.00 in0.0 mm 0.00 in0.0 mm 1.17 in29.7 mm
10:40 PM 85.3°F29.6°C 78.8°F26.0°C 81% 1.0 mph WSW1.6 kmh WSW -- 29.95 in1014.2 mb 0.00 in0.0 mm 0.00 in0.0 mm 1.17 in29.7 mm
10:45 PM 85.3°F29.6°C 79.2°F26.2°C 82% Calm Calm -- 29.95 in1014.2 mb 0.00 in0.0 mm 0.00 in0.0 mm 1.17 in29.7 mm
10:50 PM 84.7°F29.3°C 78.6°F25.9°C 82% 3.0 mph SW4.8 kmh SW -- 29.95 in1014.2 mb 0.00 in0.0 mm 0.00 in0.0 mm 1.17 in29.7 mm
10:55 PM 85.5°F29.7°C 79.3°F26.3°C 82% Calm Calm -- 29.95 in1014.2 mb 0.00 in0.0 mm 0.00 in0.0 mm 1.17 in29.7 mm
11:00 PM 84.6°F29.2°C 78.8°F26.0°C 83% 2.0 mph W3.2 kmh W -- 29.95 in1014.2 mb 0.00 in0.0 mm 0.00 in0.0 mm 1.17 in29.7 mm
11:05 PM 85.1°F29.5°C 79.4°F26.3°C 83% Calm Calm -- 29.95 in1014.2 mb 0.00 in0.0 mm 0.00 in0.0 mm 1.17 in29.7 mm
11:10 PM 84.6°F29.2°C 79.2°F26.2°C 84% 4.0 mph WSW6.4 kmh WSW -- 29.95 in1014.2 mb 0.00 in0.0 mm 0.00 in0.0 mm 1.17 in29.7 mm
11:15 PM 84.9°F29.4°C 79.5°F26.4°C 84% Calm Calm -- 29.95 in1014.2 mb 0.00 in0.0 mm 0.00 in0.0 mm 1.17 in29.7 mm
11:25 PM 84.6°F29.2°C 79.2°F26.2°C 84% 1.0 mph W1.6 kmh W -- 29.95 in1014.2 mb 0.00 in0.0 mm 0.00 in0.0 mm 1.17 in29.7 mm
11:30 PM 84.7°F29.3°C 79.4°F26.3°C 84% Calm Calm -- 29.95 in1014.2 mb 0.00 in0.0 mm 0.00 in0.0 mm 1.17 in29.7 mm
11:35 PM 84.6°F29.2°C 79.6°F26.4°C 85% Calm Calm -- 29.95 in1014.2 mb 0.00 in0.0 mm 0.00 in0.0 mm 1.17 in29.7 mm
11:40 PM 84.6°F29.2°C 79.6°F26.4°C 85% Calm Calm -- 29.94 in1013.9 mb 0.00 in0.0 mm 0.00 in0.0 mm 1.17 in29.7 mm
11:45 PM 84.4°F29.1°C 79.4°F26.3°C 85% Calm Calm -- 29.95 in1014.2 mb 0.00 in0.0 mm 0.00 in0.0 mm 1.17 in29.7 mm
11:50 PM 84.0°F28.9°C 79.4°F26.3°C 86% 2.0 mph W3.2 kmh W -- 29.95 in1014.2 mb 0.00 in0.0 mm 0.00 in0.0 mm 1.17 in29.7 mm
11:55 PM 84.0°F28.9°C 79.4°F26.3°C 86% Calm Calm -- 29.94 in1013.9 mb 0.00 in0.0 mm 0.00 in0.0 mm 1.17 in29.7 mm